Flugplatz Achmer

Für EDXA sind keine METAR/TAF Berichte vorhanden.
Es werden die Flugwettermeldungen vom Flugplatz Münster Osnabrück in 31 km Entfernung angezeigt.

Bericht für EDDG

vom 17.09. um 14:20 UTC

Wind 14 kt aus 300°

Sichtweite 10 km oder mehr

gering bewölkt in 3400 ft

Temperatur 16.0°C

Taupunkt 7.0°C

Luftfeuchtigkeit 55%

Luftdruck 1019 hPa

keine wesentliche Wetteränderung innerhalb den nächsten 2 Stunden zu erwarten

EDDG 171420Z 30014KT 270V330 9999 FEW034TCU 16/07 Q1019 NOSIG

Prognose für EDDG

vom 17.09. um 00:00 UTC

Zwischen 00:00 UTC und 00:00 UTC

Wind 13 kt aus 260°

Sichtweite 10 km oder mehr

aufgelockert bewölkt in 4000 ft


Zwischen 00:00 UTC und 00:00 UTC zeitweise

Wind 15 kt aus 280° in Böen 30 kt


Zwischen 00:00 und 00:00 UTC übergehend zu

Wind 5 kt aus 280°

Sichtweite 10 km oder mehr

aufgelockert bewölkt in 4000 ft

TAF EDDG 171100Z 1712/1812 26013KT 9999 SCT040 TEMPO 1712/1718 28015G30KT BECMG 1718/1721 28005KT
Impressum